createdAt,value
2023-03-03T00:01:38.067Z,1.36
2023-03-03T00:04:11.717Z,1.36
2023-03-03T00:06:46.217Z,1.34
2023-03-03T00:09:20.000Z,1.32
2023-03-03T00:11:59.777Z,1.32
2023-03-03T00:14:34.806Z,1.33
2023-03-03T00:17:25.805Z,1.32
2023-03-03T00:19:59.810Z,1.31
2023-03-03T00:22:38.770Z,1.28
2023-03-03T00:25:30.498Z,1.25
2023-03-03T00:28:18.068Z,1.24
2023-03-03T00:30:52.269Z,1.25
2023-03-03T00:33:33.156Z,1.24
2023-03-03T00:36:32.092Z,1.25
2023-03-03T00:39:28.207Z,1.25
2023-03-03T00:42:12.891Z,1.24
2023-03-03T00:44:47.923Z,1.23
2023-03-03T00:47:31.950Z,1.22
2023-03-03T00:53:17.624Z,1.22
2023-03-03T00:55:53.534Z,1.15
2023-03-03T00:58:28.116Z,1.14
2023-03-03T01:01:02.696Z,1.16
2023-03-03T01:03:44.983Z,1.14
2023-03-03T01:06:18.559Z,1.14
2023-03-03T01:08:51.811Z,1.13
2023-03-03T01:11:28.966Z,1.13
2023-03-03T01:14:02.542Z,1.12
2023-03-03T01:16:36.531Z,1.12
2023-03-03T01:19:10.316Z,1.10
2023-03-03T01:21:44.033Z,1.11
2023-03-03T01:24:18.024Z,1.10
2023-03-03T01:26:51.551Z,1.09
2023-03-03T01:29:25.429Z,1.09
2023-03-03T01:31:59.075Z,1.08
2023-03-03T01:34:32.959Z,1.08
2023-03-03T01:37:06.829Z,1.06
2023-03-03T01:39:40.425Z,1.04
2023-03-03T01:42:14.222Z,1.01
2023-03-03T01:44:48.557Z,1.00
2023-03-03T01:47:26.666Z,1.00
2023-03-03T01:50:04.215Z,1.01
2023-03-03T01:52:40.780Z,1.02
2023-03-03T01:55:17.991Z,1.01
2023-03-03T01:57:58.914Z,0.99
2023-03-03T02:00:33.439Z,0.98
2023-03-03T02:03:07.744Z,0.94
2023-03-03T02:05:43.717Z,0.91
2023-03-03T02:08:23.849Z,0.90
2023-03-03T02:10:58.891Z,0.90
2023-03-03T02:13:33.144Z,0.91
2023-03-03T02:16:07.729Z,0.91
2023-03-03T02:18:41.622Z,0.93
2023-03-03T02:21:17.305Z,0.92
2023-03-03T02:23:56.514Z,0.93
2023-03-03T02:26:31.636Z,0.91
2023-03-03T02:29:08.303Z,0.92
2023-03-03T02:31:43.473Z,0.94
2023-03-03T02:34:17.149Z,0.96
2023-03-03T02:36:50.875Z,0.98
2023-03-03T02:39:30.434Z,0.98
2023-03-03T02:42:08.915Z,0.99
2023-03-03T02:44:56.037Z,1.00
2023-03-03T02:47:30.750Z,0.98
2023-03-03T02:50:04.654Z,0.96
2023-03-03T02:52:38.384Z,0.94
2023-03-03T02:55:13.855Z,0.92
2023-03-03T02:57:47.494Z,0.89
2023-03-03T03:00:21.902Z,0.87
2023-03-03T03:02:55.536Z,0.87
2023-03-03T03:05:30.277Z,0.89
2023-03-03T03:08:03.969Z,0.92
2023-03-03T03:10:38.357Z,0.92
2023-03-03T03:13:12.340Z,0.91
2023-03-03T03:15:48.905Z,0.85
2023-03-03T03:18:23.514Z,0.79
2023-03-03T03:20:57.378Z,0.72
2023-03-03T03:23:31.601Z,0.67
2023-03-03T03:26:06.288Z,0.65
2023-03-03T03:28:40.565Z,0.65
2023-03-03T03:31:14.602Z,0.66
2023-03-03T03:33:49.324Z,0.67
2023-03-03T03:36:23.513Z,0.67
2023-03-03T03:38:58.258Z,0.65
2023-03-03T03:41:32.559Z,0.63
2023-03-03T03:44:06.361Z,0.62
2023-03-03T03:46:40.237Z,0.63
2023-03-03T03:49:14.408Z,0.63
2023-03-03T03:51:48.049Z,0.65
2023-03-03T03:54:23.130Z,0.65
2023-03-03T03:56:57.604Z,0.65
2023-03-03T03:59:31.118Z,0.64
2023-03-03T04:02:04.754Z,0.63
2023-03-03T04:04:38.465Z,0.60
2023-03-03T04:07:13.264Z,0.58
2023-03-03T04:09:46.880Z,0.59
2023-03-03T04:12:20.453Z,0.59
2023-03-03T04:14:54.176Z,0.60
2023-03-03T04:17:27.818Z,0.61
2023-03-03T04:20:02.660Z,0.60
2023-03-03T04:22:37.428Z,0.59
2023-03-03T04:25:14.911Z,0.58
2023-03-03T04:27:49.290Z,0.56
2023-03-03T04:30:24.735Z,0.53
2023-03-03T04:33:01.163Z,0.51
2023-03-03T04:35:35.079Z,0.51
2023-03-03T04:38:09.288Z,0.49
2023-03-03T04:40:43.816Z,0.46
2023-03-03T04:43:18.483Z,0.42
2023-03-03T04:45:52.527Z,0.40
2023-03-03T04:48:26.427Z,0.39
2023-03-03T04:51:00.672Z,0.36
2023-03-03T04:53:34.654Z,0.35
2023-03-03T04:56:08.811Z,0.35
2023-03-03T04:58:42.742Z,0.35
2023-03-03T05:01:16.731Z,0.36
2023-03-03T05:03:50.451Z,0.34
2023-03-03T05:06:24.846Z,0.31
2023-03-03T05:08:58.211Z,0.27
2023-03-03T05:11:32.855Z,0.24
2023-03-03T05:14:08.568Z,0.21
2023-03-03T05:16:42.486Z,0.18
2023-03-03T05:19:16.799Z,0.19
2023-03-03T05:21:50.212Z,0.23
2023-03-03T05:24:24.330Z,0.28
2023-03-03T05:26:57.795Z,0.32
2023-03-03T05:29:32.002Z,0.36
2023-03-03T05:32:05.749Z,0.40
2023-03-03T05:34:39.644Z,0.44
2023-03-03T05:37:13.700Z,0.47
2023-03-03T05:39:47.516Z,0.52
2023-03-03T05:42:20.886Z,0.58
2023-03-03T05:44:54.935Z,0.64
2023-03-03T05:47:28.954Z,0.71
2023-03-03T05:50:03.150Z,0.72
2023-03-03T05:52:36.861Z,0.70
2023-03-03T05:55:12.254Z,0.71
2023-03-03T05:57:45.718Z,0.69
2023-03-03T06:00:21.340Z,0.70
2023-03-03T06:02:55.316Z,0.74
2023-03-03T06:05:29.345Z,0.81
2023-03-03T06:08:02.971Z,0.84
2023-03-03T06:10:36.789Z,0.82
2023-03-03T06:13:10.951Z,0.84
2023-03-03T06:15:45.605Z,0.88
2023-03-03T06:18:19.987Z,0.90
2023-03-03T06:20:56.841Z,0.93
2023-03-03T06:23:30.609Z,0.95
2023-03-03T06:26:04.322Z,0.95
2023-03-03T06:28:37.710Z,0.99
2023-03-03T06:31:11.602Z,1.01
2023-03-03T06:33:45.278Z,1.01
2023-03-03T06:36:18.709Z,1.02
2023-03-03T06:38:52.435Z,1.00
2023-03-03T06:41:25.670Z,1.01
2023-03-03T06:44:00.665Z,1.04
2023-03-03T06:46:34.409Z,1.06
2023-03-03T06:49:07.839Z,1.05
2023-03-03T06:51:44.228Z,1.03
2023-03-03T06:54:20.593Z,1.02
2023-03-03T06:56:59.784Z,1.05
2023-03-03T06:59:33.887Z,1.12
2023-03-03T07:02:18.820Z,1.19
2023-03-03T07:04:55.099Z,1.29
2023-03-03T07:07:29.654Z,1.34
2023-03-03T07:10:09.658Z,1.41
2023-03-03T07:12:43.371Z,1.46
2023-03-03T07:15:22.247Z,1.51
2023-03-03T07:17:59.977Z,1.58
2023-03-03T07:20:37.646Z,1.63
2023-03-03T07:23:22.934Z,1.71
2023-03-03T07:25:56.891Z,1.75
2023-03-03T07:28:34.884Z,1.73
2023-03-03T07:31:27.742Z,1.70
2023-03-03T07:34:03.382Z,1.66
2023-03-03T07:36:39.288Z,1.61
2023-03-03T07:39:30.046Z,1.61
2023-03-03T07:42:22.528Z,1.67
2023-03-03T07:45:02.378Z,1.76
2023-03-03T07:47:39.442Z,1.81
2023-03-03T07:50:24.914Z,1.85
2023-03-03T07:53:00.443Z,1.89
2023-03-03T07:55:38.661Z,1.93
2023-03-03T07:58:25.415Z,1.99
2023-03-03T08:01:28.305Z,2.09
2023-03-03T08:04:01.950Z,2.20
2023-03-03T08:06:45.345Z,2.29
2023-03-03T08:09:44.411Z,2.37
2023-03-03T08:12:33.402Z,2.36
2023-03-03T08:15:23.133Z,2.33
2023-03-03T08:17:57.871Z,2.35
2023-03-03T08:20:51.712Z,2.42
2023-03-03T08:23:25.529Z,2.47
2023-03-03T08:25:59.471Z,2.50
2023-03-03T08:28:33.275Z,2.53
2023-03-03T08:31:18.505Z,2.60
2023-03-03T08:33:59.142Z,2.66
2023-03-03T08:36:34.678Z,2.70
2023-03-03T08:39:09.787Z,2.76
2023-03-03T08:41:44.812Z,2.82
2023-03-03T08:44:19.924Z,2.84
2023-03-03T08:46:53.762Z,2.86
2023-03-03T08:49:27.431Z,2.90
2023-03-03T08:52:01.120Z,2.92
2023-03-03T08:54:35.398Z,2.90
2023-03-03T08:57:09.129Z,2.90
2023-03-03T08:59:43.147Z,2.93
2023-03-03T09:02:18.182Z,3.01
2023-03-03T09:04:52.254Z,3.04
2023-03-03T09:07:25.780Z,3.01
2023-03-03T09:09:59.407Z,2.99
2023-03-03T09:12:36.839Z,2.97
2023-03-03T09:15:20.817Z,2.93
2023-03-03T09:17:54.834Z,2.93
2023-03-03T09:20:40.506Z,2.99
2023-03-03T09:23:36.066Z,3.04
2023-03-03T09:26:31.387Z,3.04
2023-03-03T09:29:20.747Z,3.05
2023-03-03T09:31:56.052Z,3.06
2023-03-03T09:34:42.698Z,3.09
2023-03-03T09:37:24.983Z,3.08
2023-03-03T09:39:59.215Z,3.09
2023-03-03T09:42:53.377Z,3.12
2023-03-03T09:45:55.125Z,3.11
2023-03-03T09:48:47.512Z,3.14
2023-03-03T09:51:37.099Z,3.13
2023-03-03T09:54:24.543Z,3.10
2023-03-03T09:57:07.580Z,3.05
2023-03-03T10:00:03.652Z,2.98
2023-03-03T10:03:00.968Z,2.96
2023-03-03T10:05:45.539Z,2.97
2023-03-03T10:08:39.850Z,2.95
2023-03-03T10:11:24.857Z,2.95
2023-03-03T10:14:20.598Z,2.95
2023-03-03T10:17:15.262Z,2.98
2023-03-03T10:20:00.869Z,3.07
2023-03-03T10:22:45.446Z,3.13
2023-03-03T10:25:30.202Z,3.18
2023-03-03T10:28:32.939Z,3.22
2023-03-03T10:31:20.736Z,3.24
2023-03-03T10:34:00.753Z,3.15
2023-03-03T10:36:43.452Z,3.06
2023-03-03T10:39:35.254Z,2.97
2023-03-03T10:42:21.321Z,2.97
2023-03-03T10:45:20.194Z,2.97
2023-03-03T10:48:24.395Z,2.97
2023-03-03T10:51:07.604Z,3.03
2023-03-03T10:53:54.528Z,3.09
2023-03-03T10:56:52.177Z,3.11
2023-03-03T10:59:43.112Z,3.16
2023-03-03T11:02:24.939Z,3.14
2023-03-03T11:05:34.655Z,3.09
2023-03-03T11:08:14.612Z,3.10
2023-03-03T11:10:58.719Z,3.15
2023-03-03T11:13:42.812Z,3.18
2023-03-03T11:16:37.712Z,3.17
2023-03-03T11:19:30.509Z,3.19
2023-03-03T11:22:19.539Z,3.18
2023-03-03T11:25:03.968Z,3.17
2023-03-03T11:28:09.325Z,3.12
2023-03-03T11:31:06.720Z,3.01
2023-03-03T11:33:52.490Z,2.95
2023-03-03T11:36:35.076Z,2.99
2023-03-03T11:39:13.561Z,3.02
2023-03-03T11:42:01.368Z,3.02
2023-03-03T11:44:39.920Z,3.02
2023-03-03T11:47:21.101Z,3.02
2023-03-03T11:49:59.395Z,3.02
2023-03-03T11:52:46.278Z,2.96
2023-03-03T11:55:26.925Z,2.95
2023-03-03T11:58:08.691Z,2.96
2023-03-03T12:00:50.067Z,2.97
2023-03-03T12:03:32.304Z,3.03
2023-03-03T12:06:19.885Z,3.03
2023-03-03T12:09:28.963Z,3.05
2023-03-03T12:12:08.877Z,2.98
2023-03-03T12:15:02.483Z,2.95
2023-03-03T12:17:55.919Z,2.92
2023-03-03T12:20:39.890Z,2.93
2023-03-03T12:23:26.666Z,2.97
2023-03-03T12:26:06.795Z,3.03
2023-03-03T12:28:44.456Z,3.03
2023-03-03T12:31:31.283Z,3.00
2023-03-03T12:34:14.087Z,2.97
2023-03-03T12:37:17.593Z,2.96
2023-03-03T12:40:05.152Z,2.97
2023-03-03T12:42:52.944Z,2.95
2023-03-03T12:45:39.635Z,2.91
2023-03-03T12:48:19.258Z,2.88
2023-03-03T12:51:01.829Z,2.85
2023-03-03T12:53:48.148Z,2.80
2023-03-03T12:56:29.350Z,2.74
2023-03-03T12:59:06.939Z,2.69
2023-03-03T13:01:55.740Z,2.67
2023-03-03T13:04:40.200Z,2.68
2023-03-03T13:07:21.552Z,2.69
2023-03-03T13:10:11.520Z,2.66
2023-03-03T13:12:52.692Z,2.65
2023-03-03T13:15:33.281Z,2.62
2023-03-03T13:18:27.829Z,2.66
2023-03-03T13:21:06.329Z,2.70
2023-03-03T13:23:46.828Z,2.78
2023-03-03T13:26:26.826Z,2.82
2023-03-03T13:29:11.986Z,2.85
2023-03-03T13:31:52.359Z,2.79
2023-03-03T13:34:39.240Z,2.72
2023-03-03T13:37:22.863Z,2.71
2023-03-03T13:40:03.913Z,2.72
2023-03-03T13:42:43.713Z,2.75
2023-03-03T13:45:25.410Z,2.74
2023-03-03T13:48:09.142Z,2.73
2023-03-03T13:50:49.677Z,2.75
2023-03-03T13:53:39.930Z,2.74
2023-03-03T13:56:26.727Z,2.74
2023-03-03T13:59:10.320Z,2.73
2023-03-03T14:01:56.723Z,2.69
2023-03-03T14:04:53.270Z,2.68
2023-03-03T14:07:36.310Z,2.69
2023-03-03T14:10:17.246Z,2.72
2023-03-03T14:12:59.611Z,2.73
2023-03-03T14:15:37.247Z,2.71
2023-03-03T14:18:23.911Z,2.64
2023-03-03T14:21:00.962Z,2.65
2023-03-03T14:23:46.641Z,2.63
2023-03-03T14:26:20.221Z,2.60
2023-03-03T14:29:05.567Z,2.60
2023-03-03T14:31:44.717Z,2.61
2023-03-03T14:34:37.418Z,2.64
2023-03-03T14:37:25.583Z,2.62
2023-03-03T14:40:18.027Z,2.64
2023-03-03T14:42:56.555Z,2.63
2023-03-03T14:45:34.286Z,2.62
2023-03-03T14:48:20.064Z,2.61
2023-03-03T14:51:05.046Z,2.58
2023-03-03T14:53:41.417Z,2.51
2023-03-03T14:56:25.412Z,2.49
2023-03-03T14:59:19.638Z,2.47
2023-03-03T15:02:05.034Z,2.41
2023-03-03T15:04:39.873Z,2.39
2023-03-03T15:07:30.696Z,2.39
2023-03-03T15:10:05.252Z,2.39
2023-03-03T15:12:42.629Z,2.38
2023-03-03T15:15:21.861Z,2.36
2023-03-03T15:18:03.798Z,2.34
2023-03-03T15:20:44.132Z,2.32
2023-03-03T15:23:37.661Z,2.29
2023-03-03T15:26:19.902Z,2.29
2023-03-03T15:29:06.728Z,2.32
2023-03-03T15:31:52.536Z,2.37
2023-03-03T15:34:35.716Z,2.35
2023-03-03T15:37:20.336Z,2.33
2023-03-03T15:40:04.695Z,2.32
2023-03-03T15:42:44.689Z,2.32
2023-03-03T15:45:29.018Z,2.29
2023-03-03T15:48:29.259Z,2.28
2023-03-03T15:51:16.501Z,2.25
2023-03-03T15:54:12.387Z,2.25
2023-03-03T15:56:53.509Z,2.23
2023-03-03T15:59:45.481Z,2.19
2023-03-03T16:02:25.489Z,2.12
2023-03-03T16:05:05.200Z,2.10
2023-03-03T16:07:49.391Z,2.10
2023-03-03T16:10:31.641Z,2.12
2023-03-03T16:13:23.245Z,2.12
2023-03-03T16:16:04.836Z,2.13
2023-03-03T16:18:56.286Z,2.14
2023-03-03T16:22:03.716Z,2.17
2023-03-03T16:24:50.386Z,2.18
2023-03-03T16:27:32.692Z,2.17
2023-03-03T16:30:19.493Z,2.18
2023-03-03T16:32:59.481Z,2.21
2023-03-03T16:35:39.689Z,2.24
2023-03-03T16:38:19.186Z,2.22
2023-03-03T16:40:58.268Z,2.21
2023-03-03T16:43:42.261Z,2.15
2023-03-03T16:46:31.877Z,2.11
2023-03-03T16:49:21.330Z,2.13
2023-03-03T16:52:02.771Z,2.16
2023-03-03T16:54:51.321Z,2.19
2023-03-03T16:57:35.641Z,2.19
2023-03-03T17:00:17.104Z,2.14
2023-03-03T17:03:22.558Z,2.13
2023-03-03T17:06:04.596Z,2.09
2023-03-03T17:09:02.558Z,2.03
2023-03-03T17:11:51.049Z,2.01
2023-03-03T17:14:38.820Z,2.05
2023-03-03T17:17:24.077Z,2.09
2023-03-03T17:20:19.188Z,2.07
2023-03-03T17:23:10.207Z,2.05
2023-03-03T17:25:56.022Z,2.04
2023-03-03T17:28:44.361Z,2.04
2023-03-03T17:31:32.471Z,2.05
2023-03-03T17:34:30.153Z,2.08
2023-03-03T17:37:18.396Z,2.08
2023-03-03T17:40:23.705Z,2.13
2023-03-03T17:43:05.738Z,2.17
2023-03-03T17:45:44.520Z,2.17
2023-03-03T17:48:46.262Z,2.16
2023-03-03T17:51:41.089Z,2.17
2023-03-03T17:54:37.952Z,2.16
2023-03-03T17:57:28.626Z,2.16
2023-03-03T18:00:19.269Z,2.16
2023-03-03T18:03:22.937Z,2.11
2023-03-03T18:06:17.071Z,2.07
2023-03-03T18:09:27.022Z,2.04
2023-03-03T18:12:12.541Z,2.00
2023-03-03T18:15:02.667Z,1.94
2023-03-03T18:17:49.786Z,1.90
2023-03-03T18:20:57.170Z,1.87
2023-03-03T18:23:45.832Z,1.83
2023-03-03T18:26:40.024Z,1.78
2023-03-03T18:29:24.314Z,1.75
2023-03-03T18:32:22.564Z,1.71
2023-03-03T18:35:29.954Z,1.71
2023-03-03T18:38:35.869Z,1.72
2023-03-03T18:41:24.469Z,1.76
2023-03-03T18:44:05.352Z,1.82
2023-03-03T18:47:06.001Z,1.85
2023-03-03T18:50:01.373Z,1.85
2023-03-03T18:52:42.190Z,1.83
2023-03-03T18:55:32.432Z,1.81
2023-03-03T18:58:42.507Z,1.77
2023-03-03T19:01:46.119Z,1.78
2023-03-03T19:04:34.195Z,1.77
2023-03-03T19:07:30.840Z,1.75
2023-03-03T19:10:32.296Z,1.73
2023-03-03T19:13:35.901Z,1.70
2023-03-03T19:16:31.389Z,1.71
2023-03-03T19:19:12.926Z,1.71
2023-03-03T19:21:53.450Z,1.70
2023-03-03T19:24:40.309Z,1.71
2023-03-03T19:27:35.560Z,1.72
2023-03-03T19:30:31.630Z,1.75
2023-03-03T19:33:48.315Z,1.77
2023-03-03T19:36:39.827Z,1.75
2023-03-03T19:39:40.151Z,1.75
2023-03-03T19:42:27.897Z,1.75
2023-03-03T19:45:16.817Z,1.78
2023-03-03T19:47:53.491Z,1.79
2023-03-03T19:50:46.552Z,1.78
2023-03-03T19:53:34.296Z,1.82
2023-03-03T19:56:25.189Z,1.85
2023-03-03T19:59:17.955Z,1.88
2023-03-03T20:02:18.511Z,1.91
2023-03-03T20:05:08.694Z,1.90
2023-03-03T20:07:53.068Z,1.86
2023-03-03T20:10:45.475Z,1.85
2023-03-03T20:13:48.183Z,1.88
2023-03-03T20:16:38.756Z,1.92
2023-03-03T20:19:32.584Z,1.95
2023-03-03T20:22:15.789Z,1.96
2023-03-03T20:25:18.618Z,1.95
2023-03-03T20:28:09.286Z,1.97
2023-03-03T20:31:08.789Z,2.00
2023-03-03T20:33:58.460Z,2.02
2023-03-03T20:36:44.128Z,2.03
2023-03-03T20:39:29.357Z,2.04
2023-03-03T20:42:12.146Z,2.06
2023-03-03T20:45:03.343Z,2.08
2023-03-03T20:47:55.228Z,2.07
2023-03-03T20:50:39.633Z,2.06
2023-03-03T20:53:27.711Z,2.08
2023-03-03T20:56:13.262Z,2.09
2023-03-03T20:59:12.668Z,2.12
2023-03-03T21:01:56.360Z,2.13
2023-03-03T21:04:38.694Z,2.13
2023-03-03T21:07:28.495Z,2.13
2023-03-03T21:10:17.842Z,2.12
2023-03-03T21:12:55.320Z,2.12
2023-03-03T21:15:37.071Z,2.13
2023-03-03T21:18:25.899Z,2.15
2023-03-03T21:21:02.924Z,2.20
2023-03-03T21:23:39.102Z,2.24
2023-03-03T21:26:15.367Z,2.25
2023-03-03T21:29:08.975Z,2.25
2023-03-03T21:31:49.857Z,2.27
2023-03-03T21:34:31.562Z,2.27
2023-03-03T21:37:07.748Z,2.29
2023-03-03T21:39:44.255Z,2.29
2023-03-03T21:42:20.429Z,2.28
2023-03-03T21:44:54.725Z,2.26
2023-03-03T21:47:31.637Z,2.26
2023-03-03T21:50:06.032Z,2.24
2023-03-03T21:52:39.712Z,2.24
2023-03-03T21:55:14.711Z,2.23
2023-03-03T21:57:48.812Z,2.26
2023-03-03T22:00:24.169Z,2.30
2023-03-03T22:02:58.149Z,2.31
2023-03-03T22:05:31.718Z,2.32
2023-03-03T22:08:06.118Z,2.30
2023-03-03T22:10:39.812Z,2.27
2023-03-03T22:13:15.170Z,2.25
2023-03-03T22:15:49.854Z,2.25
2023-03-03T22:18:23.627Z,2.28
2023-03-03T22:20:57.259Z,2.30
2023-03-03T22:23:31.155Z,2.33
2023-03-03T22:26:04.897Z,2.36
2023-03-03T22:28:38.595Z,2.38
2023-03-03T22:31:12.166Z,2.36
2023-03-03T22:33:45.808Z,2.32
2023-03-03T22:36:20.147Z,2.30
2023-03-03T22:38:53.500Z,2.30
2023-03-03T22:41:27.191Z,2.30
2023-03-03T22:44:00.781Z,2.31
2023-03-03T22:46:34.565Z,2.32
2023-03-03T22:49:08.357Z,2.31
2023-03-03T22:51:41.842Z,2.30
2023-03-03T22:54:15.462Z,2.25
2023-03-03T22:56:49.243Z,2.24
2023-03-03T22:59:22.893Z,2.24
2023-03-03T23:01:56.598Z,2.26
2023-03-03T23:04:33.508Z,2.28
2023-03-03T23:07:07.372Z,2.27
2023-03-03T23:09:41.144Z,2.25
2023-03-03T23:12:14.908Z,2.26
2023-03-03T23:14:49.089Z,2.27
2023-03-03T23:17:22.990Z,2.30
2023-03-03T23:19:56.841Z,2.31
2023-03-03T23:22:30.881Z,2.31
2023-03-03T23:25:04.397Z,2.34
2023-03-03T23:27:37.977Z,2.37
2023-03-03T23:30:15.064Z,2.38
2023-03-03T23:32:49.470Z,2.39
2023-03-03T23:35:23.487Z,2.40
2023-03-03T23:37:57.068Z,2.39
2023-03-03T23:40:30.304Z,2.36
2023-03-03T23:43:04.164Z,2.33
2023-03-03T23:45:37.529Z,2.29
2023-03-03T23:48:11.708Z,2.28
2023-03-03T23:50:45.199Z,2.30
2023-03-03T23:53:19.590Z,2.32
2023-03-03T23:55:52.845Z,2.33
2023-03-03T23:58:26.746Z,2.34
